createdAt,value
2019-04-11T00:02:10.627Z,15.31
2019-04-11T00:04:40.147Z,15.30
2019-04-11T00:07:09.460Z,15.21
2019-04-11T00:09:38.819Z,15.20
2019-04-11T00:12:08.473Z,15.16
2019-04-11T00:14:38.048Z,15.08
2019-04-11T00:17:07.831Z,14.99
2019-04-11T00:19:37.726Z,14.95
2019-04-11T00:22:07.177Z,14.89
2019-04-11T00:24:36.797Z,14.85
2019-04-11T00:27:06.169Z,14.82
2019-04-11T00:29:36.493Z,14.72
2019-04-11T00:32:08.029Z,14.62
2019-04-11T00:34:37.372Z,14.55
2019-04-11T00:37:06.733Z,14.48
2019-04-11T00:39:35.894Z,14.43
2019-04-11T00:42:06.099Z,14.44
2019-04-11T00:44:35.770Z,14.41
2019-04-11T00:47:04.988Z,14.39
2019-04-11T00:49:34.653Z,14.36
2019-04-11T00:52:04.569Z,14.33
2019-04-11T00:54:35.178Z,14.28
2019-04-11T00:57:04.625Z,14.30
2019-04-11T00:59:34.182Z,14.24
2019-04-11T01:02:05.083Z,14.22
2019-04-11T01:04:34.959Z,14.23
2019-04-11T01:07:04.749Z,14.22
2019-04-11T01:09:34.733Z,14.17
2019-04-11T01:12:04.654Z,14.14
2019-04-11T01:14:35.954Z,14.17
2019-04-11T01:17:06.197Z,14.18
2019-04-11T01:19:35.820Z,14.14
2019-04-11T01:22:05.753Z,14.09
2019-04-11T01:24:35.597Z,14.10
2019-04-11T01:27:05.646Z,14.07
2019-04-11T01:29:35.662Z,14.06
2019-04-11T01:32:06.728Z,14.06
2019-04-11T01:34:37.006Z,14.08
2019-04-11T01:37:07.254Z,14.08
2019-04-11T01:39:50.187Z,14.06
2019-04-11T01:42:19.728Z,14.05
2019-04-11T01:44:49.325Z,14.06
2019-04-11T01:47:37.373Z,14.09
2019-04-11T01:50:08.746Z,14.08
2019-04-11T01:52:38.283Z,14.08
2019-04-11T01:55:08.244Z,14.09
2019-04-11T01:57:38.107Z,14.06
2019-04-11T02:00:09.739Z,14.05
2019-04-11T02:02:56.994Z,14.04
2019-04-11T02:05:29.262Z,13.99
2019-04-11T02:07:58.813Z,13.95
2019-04-11T02:10:28.717Z,13.89
2019-04-11T02:12:59.640Z,13.91
2019-04-11T02:15:30.366Z,13.88
2019-04-11T02:17:59.828Z,13.89
2019-04-11T02:20:29.199Z,13.89
2019-04-11T02:23:06.782Z,13.88
2019-04-11T02:25:38.723Z,13.85
2019-04-11T02:28:10.420Z,13.77
2019-04-11T02:30:44.153Z,13.77
2019-04-11T02:33:15.331Z,13.77
2019-04-11T02:35:46.330Z,13.71
2019-04-11T02:38:16.512Z,13.72
2019-04-11T02:40:47.455Z,13.70
2019-04-11T02:43:17.620Z,13.68
2019-04-11T02:46:00.156Z,13.59
2019-04-11T02:48:18.504Z,13.63
2019-04-11T02:50:50.173Z,13.64
2019-04-11T02:53:21.297Z,13.67
2019-04-11T02:55:52.187Z,13.63
2019-04-11T02:58:23.235Z,13.59
2019-04-11T03:00:55.940Z,13.55
2019-04-11T03:03:25.353Z,13.49
2019-04-11T03:05:55.464Z,13.44
2019-04-11T03:08:26.848Z,13.42
2019-04-11T03:10:57.559Z,13.40
2019-04-11T03:13:27.311Z,13.42
2019-04-11T03:16:12.839Z,13.39
2019-04-11T03:18:45.807Z,13.36
2019-04-11T03:21:04.590Z,13.38
2019-04-11T03:23:31.098Z,13.32
2019-04-11T03:26:00.749Z,13.34
2019-04-11T03:28:33.311Z,13.35
2019-04-11T03:31:37.310Z,13.30
2019-04-11T03:37:01.049Z,13.30
2019-04-11T03:38:57.042Z,13.31
2019-04-11T03:41:25.362Z,13.28
2019-04-11T03:43:51.115Z,13.28
2019-04-11T03:46:25.062Z,13.25
2019-04-11T03:48:53.004Z,13.26
2019-04-11T03:51:13.141Z,13.25
2019-04-11T03:56:14.003Z,13.27
2019-04-11T03:58:43.990Z,13.26
2019-04-11T04:01:16.308Z,13.27
2019-04-11T04:03:46.706Z,13.27
2019-04-11T04:06:17.014Z,13.29
2019-04-11T04:08:48.280Z,13.33
2019-04-11T04:11:27.336Z,13.33
2019-04-11T04:13:59.416Z,13.33
2019-04-11T04:16:40.858Z,13.33
2019-04-11T04:19:15.726Z,13.31
2019-04-11T04:21:51.247Z,13.34
2019-04-11T04:24:36.711Z,13.34
2019-04-11T04:27:05.232Z,13.35
2019-04-11T04:29:37.741Z,13.34
2019-04-11T04:32:08.268Z,13.40
2019-04-11T04:34:40.174Z,13.40
2019-04-11T04:37:09.673Z,13.43
2019-04-11T04:39:39.994Z,13.44
2019-04-11T04:42:21.046Z,13.50
2019-04-11T04:44:42.880Z,13.52
2019-04-11T04:47:21.139Z,13.57
2019-04-11T04:49:43.684Z,13.64
2019-04-11T04:52:14.397Z,13.69
2019-04-11T04:54:44.476Z,13.72
2019-04-11T04:57:15.490Z,13.77
2019-04-11T04:59:44.985Z,13.77
2019-04-11T05:02:14.980Z,13.78
2019-04-11T05:04:45.858Z,13.81
2019-04-11T05:07:15.323Z,13.85
2019-04-11T05:09:45.852Z,13.87
2019-04-11T05:12:16.297Z,13.83
2019-04-11T05:14:45.686Z,13.80
2019-04-11T05:17:14.961Z,13.80
2019-04-11T05:19:44.584Z,13.84
2019-04-11T05:22:14.681Z,13.87
2019-04-11T05:24:44.032Z,13.90
2019-04-11T05:27:13.178Z,13.87
2019-04-11T05:29:42.242Z,13.87
2019-04-11T05:32:11.484Z,13.93
2019-04-11T05:34:41.437Z,14.03
2019-04-11T05:37:11.077Z,14.13
2019-04-11T05:39:41.294Z,14.17
2019-04-11T05:42:15.888Z,14.20
2019-04-11T05:44:43.186Z,14.32
2019-04-11T05:47:18.161Z,14.37
2019-04-11T05:49:51.315Z,14.38
2019-04-11T05:52:23.986Z,14.38
2019-04-11T05:54:54.964Z,14.41
2019-04-11T05:57:32.322Z,14.47
2019-04-11T05:59:56.575Z,14.47
2019-04-11T06:02:29.046Z,14.39
2019-04-11T06:05:06.852Z,14.36
2019-04-11T06:07:42.153Z,14.33
2019-04-11T06:10:12.849Z,14.34
2019-04-11T06:12:59.549Z,14.33
2019-04-11T06:15:31.278Z,14.25
2019-04-11T06:18:02.776Z,14.35
2019-04-11T06:20:39.720Z,14.42
2019-04-11T06:23:10.767Z,14.42
2019-04-11T06:25:49.130Z,14.33
2019-04-11T06:28:27.211Z,14.37
2019-04-11T06:31:01.321Z,14.43
2019-04-11T06:33:32.443Z,14.42
2019-04-11T06:36:21.459Z,14.51
2019-04-11T06:38:58.760Z,14.51
2019-04-11T06:41:30.597Z,14.53
2019-04-11T06:44:16.503Z,14.54
2019-04-11T06:46:56.203Z,14.64
2019-04-11T06:49:38.405Z,14.84
2019-04-11T06:52:10.614Z,14.95
2019-04-11T06:54:47.549Z,15.12
2019-04-11T06:57:18.777Z,15.15
2019-04-11T06:59:52.484Z,15.56
2019-04-11T07:02:24.636Z,15.59
2019-04-11T07:05:04.651Z,15.61
2019-04-11T07:07:35.674Z,15.34
2019-04-11T07:10:07.176Z,15.51
2019-04-11T07:12:55.531Z,15.53
2019-04-11T07:15:27.243Z,15.69
2019-04-11T07:18:14.350Z,15.77
2019-04-11T07:20:45.797Z,15.80
2019-04-11T07:23:33.207Z,15.65
2019-04-11T07:26:18.802Z,15.67
2019-04-11T07:28:50.254Z,15.68
2019-04-11T07:31:21.762Z,15.56
2019-04-11T07:34:08.914Z,15.58
2019-04-11T07:36:46.251Z,15.65
2019-04-11T07:39:17.251Z,15.71
2019-04-11T07:41:48.032Z,15.60
2019-04-11T07:44:27.408Z,15.57
2019-04-11T07:47:19.227Z,15.30
2019-04-11T07:49:51.128Z,15.18
2019-04-11T07:52:21.711Z,15.12
2019-04-11T07:54:51.435Z,15.06
2019-04-11T07:57:26.310Z,14.97
2019-04-11T08:00:00.232Z,14.88
2019-04-11T08:02:47.789Z,14.86
2019-04-11T08:05:36.907Z,14.87
2019-04-11T08:08:24.065Z,14.82
2019-04-11T08:11:11.539Z,14.75
2019-04-11T08:13:42.963Z,14.76
2019-04-11T08:16:22.885Z,14.70
2019-04-11T08:19:13.101Z,14.73
2019-04-11T08:21:56.749Z,14.74
2019-04-11T08:24:29.661Z,14.72
2019-04-11T08:27:17.638Z,14.74
2019-04-11T08:29:50.074Z,14.67
2019-04-11T08:32:27.431Z,14.59
2019-04-11T08:35:17.642Z,14.52
2019-04-11T08:38:04.887Z,14.47
2019-04-11T08:40:35.829Z,14.47
2019-04-11T08:43:24.656Z,14.37
2019-04-11T08:45:56.245Z,14.32
2019-04-11T08:48:26.677Z,14.26
2019-04-11T08:51:00.939Z,14.27
2019-04-11T08:53:35.080Z,14.23
2019-04-11T08:56:05.552Z,14.22
2019-04-11T08:58:55.128Z,14.24
2019-04-11T09:01:25.121Z,14.26
2019-04-11T09:04:13.710Z,14.27
2019-04-11T09:06:43.097Z,14.24
2019-04-11T09:09:31.401Z,14.33
2019-04-11T09:12:02.606Z,14.36
2019-04-11T09:14:40.051Z,14.29
2019-04-11T09:17:12.226Z,14.37
2019-04-11T09:19:47.239Z,14.50
2019-04-11T09:22:18.257Z,14.57
2019-04-11T09:25:05.364Z,14.77
2019-04-11T09:27:46.696Z,14.88
2019-04-11T09:30:33.696Z,14.94
2019-04-11T09:33:20.915Z,14.86
2019-04-11T09:35:51.771Z,15.00
2019-04-11T09:38:22.491Z,15.06
2019-04-11T09:41:09.301Z,15.23
2019-04-11T09:43:40.249Z,15.16
2019-04-11T09:46:14.471Z,15.21
2019-04-11T09:48:46.341Z,15.14
2019-04-11T09:51:32.148Z,15.29
2019-04-11T09:54:03.596Z,15.36
2019-04-11T09:56:40.334Z,15.27
2019-04-11T09:59:14.380Z,15.21
2019-04-11T10:02:03.126Z,15.18
2019-04-11T10:04:34.046Z,15.28
2019-04-11T10:07:17.554Z,15.62
2019-04-11T10:09:48.850Z,16.17
2019-04-11T10:12:28.357Z,16.29
2019-04-11T10:14:57.821Z,16.41
2019-04-11T10:17:31.797Z,16.71
2019-04-11T10:20:02.898Z,16.31
2019-04-11T10:22:36.619Z,16.63
2019-04-11T10:25:09.135Z,16.77
2019-04-11T10:27:57.243Z,16.86
2019-04-11T10:30:34.063Z,16.64
2019-04-11T10:33:10.839Z,16.45
2019-04-11T10:35:58.928Z,16.35
2019-04-11T10:38:28.738Z,16.43
2019-04-11T10:41:00.891Z,16.40
2019-04-11T10:43:32.136Z,16.59
2019-04-11T10:46:03.007Z,16.48
2019-04-11T10:48:39.476Z,16.58
2019-04-11T10:51:12.963Z,16.79
2019-04-11T10:53:43.772Z,16.60
2019-04-11T10:56:18.138Z,16.72
2019-04-11T10:58:49.155Z,16.63
2019-04-11T11:01:26.714Z,16.57
2019-04-11T11:03:57.537Z,16.69
2019-04-11T11:06:34.268Z,16.91
2019-04-11T11:09:17.884Z,17.07
2019-04-11T11:11:54.830Z,17.38
2019-04-11T11:14:42.861Z,17.50
2019-04-11T11:17:48.227Z,17.66
2019-04-11T11:20:33.632Z,17.93
2019-04-11T11:22:58.398Z,17.77
2019-04-11T11:25:37.894Z,17.55
2019-04-11T11:28:07.475Z,17.77
2019-04-11T11:30:39.925Z,17.47
2019-04-11T11:33:11.026Z,17.76
2019-04-11T11:35:45.741Z,18.24
2019-04-11T11:38:19.951Z,17.62
2019-04-11T11:41:00.463Z,17.29
2019-04-11T11:43:32.992Z,17.78
2019-04-11T11:46:25.515Z,17.79
2019-04-11T11:48:54.266Z,17.18
2019-04-11T11:51:37.588Z,17.34
2019-04-11T11:54:11.578Z,17.29
2019-04-11T11:56:42.845Z,17.47
2019-04-11T11:59:25.633Z,18.23
2019-04-11T12:01:56.468Z,19.25
2019-04-11T12:04:35.920Z,18.49
2019-04-11T12:07:12.650Z,18.10
2019-04-11T12:09:53.025Z,17.91
2019-04-11T12:12:27.411Z,18.75
2019-04-11T12:15:17.702Z,19.20
2019-04-11T12:17:59.648Z,19.13
2019-04-11T12:20:34.687Z,19.36
2019-04-11T12:23:06.657Z,18.98
2019-04-11T12:25:38.912Z,18.48
2019-04-11T12:28:14.636Z,18.52
2019-04-11T12:30:42.466Z,18.31
2019-04-11T12:33:25.710Z,18.19
2019-04-11T12:35:58.925Z,17.83
2019-04-11T12:38:29.120Z,17.77
2019-04-11T12:41:08.864Z,18.15
2019-04-11T12:43:42.282Z,18.20
2019-04-11T12:46:30.080Z,18.15
2019-04-11T12:49:01.134Z,18.83
2019-04-11T12:51:37.687Z,18.63
2019-04-11T12:54:07.397Z,18.86
2019-04-11T12:56:50.229Z,18.96
2019-04-11T12:59:19.620Z,18.79
2019-04-11T13:01:50.490Z,19.23
2019-04-11T13:04:21.411Z,19.87
2019-04-11T13:06:58.117Z,19.56
2019-04-11T13:09:46.859Z,19.61
2019-04-11T13:12:23.846Z,19.57
2019-04-11T13:15:06.772Z,19.83
2019-04-11T13:17:37.564Z,19.90
2019-04-11T13:20:09.383Z,19.78
2019-04-11T13:22:39.850Z,20.11
2019-04-11T13:25:27.093Z,19.73
2019-04-11T13:27:57.982Z,19.32
2019-04-11T13:30:44.985Z,19.62
2019-04-11T13:33:15.994Z,19.37
2019-04-11T13:36:04.641Z,19.35
2019-04-11T13:38:36.076Z,19.04
2019-04-11T13:41:23.160Z,18.71
2019-04-11T13:43:54.028Z,18.45
2019-04-11T13:46:37.087Z,18.41
2019-04-11T13:49:19.770Z,18.32
2019-04-11T13:52:05.727Z,18.45
2019-04-11T13:54:42.420Z,18.49
2019-04-11T13:57:28.268Z,18.24
2019-04-11T14:00:15.417Z,17.90
2019-04-11T14:02:51.227Z,17.88
2019-04-11T14:05:18.837Z,17.93
2019-04-11T14:07:49.265Z,18.34
2019-04-11T14:10:19.496Z,17.96
2019-04-11T14:12:48.726Z,17.81
2019-04-11T14:15:30.281Z,17.62
2019-04-11T14:18:06.983Z,17.34
2019-04-11T14:20:41.747Z,16.98
2019-04-11T14:23:23.446Z,16.98
2019-04-11T14:26:00.620Z,16.76
2019-04-11T14:28:40.280Z,16.83
2019-04-11T14:31:14.366Z,16.68
2019-04-11T14:33:45.256Z,16.63
2019-04-11T14:36:33.840Z,16.66
2019-04-11T14:39:04.650Z,16.68
2019-04-11T14:41:43.624Z,16.60
2019-04-11T14:44:15.794Z,16.54
2019-04-11T14:46:55.609Z,16.37
2019-04-11T14:49:27.059Z,16.38
2019-04-11T14:52:09.145Z,16.37
2019-04-11T14:54:42.671Z,16.38
2019-04-11T14:57:22.752Z,16.37
2019-04-11T14:59:54.145Z,16.38
2019-04-11T15:02:28.166Z,16.28
2019-04-11T15:05:15.423Z,16.36
2019-04-11T15:07:46.075Z,16.21
2019-04-11T15:10:32.342Z,16.15
2019-04-11T15:13:01.650Z,16.21
2019-04-11T15:15:38.323Z,16.14
2019-04-11T15:18:07.536Z,16.08
2019-04-11T15:20:54.196Z,16.10
2019-04-11T15:23:19.655Z,16.02
2019-04-11T15:26:08.189Z,16.06
2019-04-11T15:28:39.336Z,16.02
2019-04-11T15:31:19.521Z,15.97
2019-04-11T15:33:53.352Z,16.00
2019-04-11T15:36:27.706Z,15.93
2019-04-11T15:39:05.937Z,15.86
2019-04-11T15:41:35.401Z,15.93
2019-04-11T15:44:18.651Z,15.89
2019-04-11T15:46:48.516Z,15.89
2019-04-11T15:49:35.760Z,15.91
2019-04-11T15:52:07.893Z,15.77
2019-04-11T15:54:50.728Z,15.70
2019-04-11T15:57:26.824Z,15.63
2019-04-11T15:59:57.213Z,15.48
2019-04-11T16:02:44.074Z,15.42
2019-04-11T16:05:32.190Z,15.29
2019-04-11T16:08:21.330Z,15.22
2019-04-11T16:10:52.223Z,15.11
2019-04-11T16:13:31.978Z,15.01
2019-04-11T16:16:07.045Z,14.93
2019-04-11T16:18:41.115Z,14.80
2019-04-11T16:21:18.617Z,14.71
2019-04-11T16:23:59.290Z,14.64
2019-04-11T16:26:35.725Z,14.49
2019-04-11T16:29:12.171Z,14.35
2019-04-11T16:31:42.117Z,14.25
2019-04-11T16:34:15.848Z,14.16
2019-04-11T16:36:45.458Z,14.06
2019-04-11T16:39:33.086Z,13.99
2019-04-11T16:42:06.719Z,13.94
2019-04-11T16:44:56.047Z,13.94
2019-04-11T16:47:26.819Z,13.95
2019-04-11T16:49:57.131Z,13.91
2019-04-11T16:52:26.864Z,13.92
2019-04-11T16:54:56.114Z,13.90
2019-04-11T16:57:25.261Z,13.84
2019-04-11T16:59:54.533Z,13.80
2019-04-11T17:02:24.247Z,13.64
2019-04-11T17:04:55.938Z,13.50
2019-04-11T17:07:32.289Z,13.54
2019-04-11T17:10:02.778Z,13.63
2019-04-11T17:12:31.912Z,13.65
2019-04-11T17:15:01.792Z,13.63
2019-04-11T17:17:31.653Z,13.65
2019-04-11T17:20:01.081Z,13.65
2019-04-11T17:22:30.309Z,13.65
2019-04-11T17:24:59.677Z,13.63
2019-04-11T17:27:28.963Z,13.60
2019-04-11T17:29:58.216Z,13.62
2019-04-11T17:32:27.437Z,13.63
2019-04-11T17:34:56.657Z,13.63
2019-04-11T17:37:25.943Z,13.62
2019-04-11T17:39:55.150Z,13.64
2019-04-11T17:42:24.409Z,13.64
2019-04-11T17:44:53.661Z,13.56
2019-04-11T17:47:26.780Z,13.49
2019-04-11T17:49:53.769Z,13.51
2019-04-11T17:52:23.024Z,13.51
2019-04-11T17:54:54.292Z,13.49
2019-04-11T17:57:26.634Z,13.51
2019-04-11T17:59:54.076Z,13.52
2019-04-11T18:02:23.219Z,13.53
2019-04-11T18:04:52.403Z,13.58
2019-04-11T18:07:21.715Z,13.57
2019-04-11T18:09:51.016Z,13.54
2019-04-11T18:12:20.236Z,13.53
2019-04-11T18:14:49.630Z,13.52
2019-04-11T18:17:19.087Z,13.57
2019-04-11T18:19:48.301Z,13.64
2019-04-11T18:22:17.647Z,13.66
2019-04-11T18:24:49.887Z,13.63
2019-04-11T18:27:21.737Z,13.64
2019-04-11T18:29:52.650Z,13.65
2019-04-11T18:32:20.298Z,13.63
2019-04-11T18:34:50.982Z,13.58
2019-04-11T18:37:20.238Z,13.56
2019-04-11T18:39:49.719Z,13.50
2019-04-11T18:42:18.958Z,13.50
2019-04-11T18:44:48.234Z,13.48
2019-04-11T18:47:17.537Z,13.49
2019-04-11T18:49:47.177Z,13.45
2019-04-11T18:52:19.886Z,13.42
2019-04-11T18:54:47.681Z,13.41
2019-04-11T18:57:16.832Z,13.42
2019-04-11T18:59:46.069Z,13.39
2019-04-11T19:02:15.271Z,13.37
2019-04-11T19:04:44.474Z,13.36
2019-04-11T19:07:14.155Z,13.31
2019-04-11T19:09:43.866Z,13.82
2019-04-11T19:12:15.874Z,13.93
2019-04-11T19:14:46.099Z,13.86
2019-04-11T19:17:16.374Z,13.77
2019-04-11T19:19:48.611Z,13.69
2019-04-11T19:22:19.490Z,13.63
2019-04-11T19:24:47.719Z,13.58
2019-04-11T19:27:20.290Z,13.55
2019-04-11T19:29:50.357Z,13.50
2019-04-11T19:32:19.758Z,13.49
2019-04-11T19:34:49.287Z,13.47
2019-04-11T19:37:18.638Z,13.44
2019-04-11T19:39:47.986Z,13.41
2019-04-11T19:42:19.673Z,13.38
2019-04-11T19:44:49.699Z,13.38
2019-04-11T19:47:22.295Z,13.39
2019-04-11T19:49:51.659Z,13.40
2019-04-11T19:52:21.146Z,13.36
2019-04-11T19:54:50.301Z,13.36
2019-04-11T19:57:19.951Z,13.36
2019-04-11T19:59:49.257Z,13.35
2019-04-11T20:02:18.397Z,13.32
2019-04-11T20:04:47.847Z,13.34
2019-04-11T20:07:17.256Z,13.34
2019-04-11T20:09:46.498Z,13.33
2019-04-11T20:12:15.792Z,13.34
2019-04-11T20:14:45.149Z,13.31
2019-04-11T20:17:14.463Z,13.32
2019-04-11T20:19:43.713Z,13.34
2019-04-11T20:22:12.967Z,13.34
2019-04-11T20:24:45.975Z,13.31
2019-04-11T20:27:13.115Z,13.31
2019-04-11T20:29:42.404Z,13.27
2019-04-11T20:32:11.568Z,13.24
2019-04-11T20:34:40.794Z,13.19
2019-04-11T20:37:12.999Z,13.16
2019-04-11T20:39:46.394Z,13.15
2019-04-11T20:42:13.790Z,13.13
2019-04-11T20:44:44.270Z,13.07
2019-04-11T20:47:16.850Z,13.05
2019-04-11T20:49:47.553Z,13.03
2019-04-11T20:52:16.979Z,13.03
2019-04-11T20:54:47.423Z,13.03
2019-04-11T20:57:25.669Z,13.00
2019-04-11T20:59:49.041Z,13.01
2019-04-11T21:02:19.831Z,13.02
2019-04-11T21:04:50.729Z,12.99
2019-04-11T21:07:23.502Z,12.93
2019-04-11T21:09:52.790Z,12.93
2019-04-11T21:12:23.696Z,12.86
2019-04-11T21:14:54.545Z,12.79
2019-04-11T21:17:25.278Z,12.77
2019-04-11T21:19:54.631Z,12.63
2019-04-11T21:22:25.544Z,12.63
2019-04-11T21:24:59.468Z,12.59
2019-04-11T21:27:29.560Z,12.56
2019-04-11T21:30:00.047Z,12.51
2019-04-11T21:32:31.967Z,12.53
2019-04-11T21:35:02.332Z,12.50
2019-04-11T21:37:31.924Z,12.48
2019-04-11T21:40:01.162Z,12.41
2019-04-11T21:42:30.414Z,12.36
2019-04-11T21:44:59.926Z,12.27
2019-04-11T21:47:31.668Z,12.24
2019-04-11T21:50:00.813Z,12.24
2019-04-11T21:52:32.297Z,12.19
2019-04-11T21:55:01.745Z,12.11
2019-04-11T21:57:32.587Z,12.06
2019-04-11T22:00:03.296Z,11.94
2019-04-11T22:02:33.984Z,11.79
2019-04-11T22:05:04.858Z,11.60
2019-04-11T22:07:34.171Z,11.58
2019-04-11T22:10:06.988Z,11.53
2019-04-11T22:12:35.162Z,11.46
2019-04-11T22:15:06.140Z,11.47
2019-04-11T22:17:35.351Z,11.37
2019-04-11T22:20:06.369Z,11.36
2019-04-11T22:22:35.614Z,11.31
2019-04-11T22:25:06.702Z,11.21
2019-04-11T22:27:35.930Z,11.19
2019-04-11T22:30:07.849Z,11.15
2019-04-11T22:32:37.142Z,11.10
2019-04-11T22:35:06.847Z,11.07
2019-04-11T22:37:36.263Z,10.99
2019-04-11T22:40:07.438Z,11.00
2019-04-11T22:42:36.637Z,10.96
2019-04-11T22:45:08.497Z,10.88
2019-04-11T22:47:38.296Z,10.81
2019-04-11T22:50:10.060Z,10.71
2019-04-11T22:52:39.866Z,10.58
2019-04-11T22:55:11.306Z,10.52
2019-04-11T22:57:43.703Z,10.50
2019-04-11T23:00:15.137Z,10.39
2019-04-11T23:03:01.788Z,10.32
2019-04-11T23:05:31.026Z,10.24
2019-04-11T23:08:02.709Z,10.22
2019-04-11T23:10:31.067Z,10.15
2019-04-11T23:13:00.231Z,10.05
2019-04-11T23:15:29.427Z,10.03
2019-04-11T23:17:58.560Z,9.98
2019-04-11T23:20:27.741Z,9.90
2019-04-11T23:22:56.926Z,9.83
2019-04-11T23:25:26.050Z,9.77
2019-04-11T23:27:55.170Z,9.71
2019-04-11T23:30:24.367Z,9.58
2019-04-11T23:32:53.492Z,9.54
2019-04-11T23:35:22.746Z,9.51
2019-04-11T23:37:52.324Z,9.49
2019-04-11T23:40:22.027Z,9.48
2019-04-11T23:42:51.379Z,9.44
2019-04-11T23:45:24.583Z,9.41
2019-04-11T23:47:54.390Z,9.38
2019-04-11T23:50:25.216Z,9.31
2019-04-11T23:52:57.255Z,9.32
2019-04-11T23:55:29.950Z,9.28
2019-04-11T23:57:56.651Z,9.22
